Time;durP1;ratioP1;P1;durP2;ratioP2;P2;SDS_P1;SDS_P2;PMS_P1;PMS_P2;Temp;Humidity;BMP_temperature;BMP_pressure;BME280_temperature;BME280_humidity;BME280_pressure;Samples;Min_cycle;Max_cycle;Signal;HPM_P1;HPM_P2
2021/01/27 16:20:51;;;;;;;1999.90;999.90;;;-0.30;99.90;;;;;;5102083;27;20574;-49
2021/01/27 16:23:17;;;;;;;1999.90;999.90;;;-0.40;99.90;;;;;;5075075;28;20458;-49
2021/01/27 16:25:42;;;;;;;1999.90;999.90;;;-0.40;99.90;;;;;;5082522;28;20181;-49
2021/01/27 16:28:08;;;;;;;1999.90;999.90;;;-0.30;99.90;;;;;;5082961;28;20271;-50
2021/01/27 16:30:34;;;;;;;1999.90;999.90;;;-0.20;99.90;;;;;;5082464;28;20211;-49
2021/01/27 16:33:01;;;;;;;1999.90;999.90;;;-0.20;99.90;;;;;;5082378;28;20800;-49
2021/01/27 16:35:30;;;;;;;1999.90;999.90;;;-0.10;99.90;;;;;;5082605;28;20988;-49
2021/01/27 16:37:56;;;;;;;1999.90;999.90;;;-0.10;99.90;;;;;;5083887;28;20430;-49
2021/01/27 16:40:22;;;;;;;1999.90;999.90;;;-0.10;99.90;;;;;;5081264;28;21020;-48
2021/01/27 16:42:49;;;;;;;1999.90;999.90;;;-0.20;99.90;;;;;;5084940;28;20421;-48
2021/01/27 16:45:17;;;;;;;1999.90;999.90;;;-0.20;99.90;;;;;;5082582;28;20445;-49
2021/01/27 16:47:43;;;;;;;1999.90;999.90;;;-0.10;99.90;;;;;;5076805;28;20442;-47
2021/01/27 16:50:11;;;;;;;1999.90;999.90;;;-0.10;99.90;;;;;;5080648;28;20473;-49
2021/01/27 16:52:37;;;;;;;1999.90;999.90;;;-0.20;99.90;;;;;;5083339;28;20187;-48
2021/01/27 16:55:04;;;;;;;1999.90;999.90;;;-0.10;99.90;;;;;;5078862;28;20446;-48
2021/01/27 16:57:30;;;;;;;1999.90;999.90;;;-0.10;99.90;;;;;;5080732;28;21278;-48
2021/01/27 16:59:55;;;;;;;1999.90;999.90;;;-0.20;99.90;;;;;;5081000;28;20470;-48
2021/01/27 17:02:21;;;;;;;1999.90;999.90;;;-0.20;99.90;;;;;;5079231;28;20319;-47
2021/01/27 17:04:46;;;;;;;1999.90;999.90;;;-0.10;99.90;;;;;;5080660;28;20184;-48
2021/01/27 17:07:12;;;;;;;1999.90;999.90;;;-0.10;99.90;;;;;;5077729;28;20556;-49
2021/01/27 17:09:38;;;;;;;1999.90;999.90;;;-0.10;99.90;;;;;;5080420;28;20240;-48
2021/01/27 17:12:04;;;;;;;1999.90;999.90;;;-0.10;99.90;;;;;;5080251;28;20293;-48
2021/01/27 17:14:29;;;;;;;1999.90;999.90;;;-0.10;99.90;;;;;;5080020;28;20220;-48
2021/01/27 17:16:55;;;;;;;1999.90;999.90;;;-0.20;99.90;;;;;;5079105;28;20488;-48
2021/01/27 17:19:21;;;;;;;1999.90;999.90;;;-0.20;99.90;;;;;;5084154;28;20219;-49
2021/01/27 17:21:48;;;;;;;1999.90;999.90;;;-0.20;99.90;;;;;;5081854;28;20179;-48
2021/01/27 17:24:14;;;;;;;1999.90;999.90;;;-0.20;99.90;;;;;;5078751;28;20191;-48
2021/01/27 17:26:42;;;;;;;1999.90;999.90;;;-0.30;99.90;;;;;;5074038;28;20470;-48
2021/01/27 17:29:09;;;;;;;1999.90;999.90;;;-0.20;99.90;;;;;;5080568;28;20442;-48
2021/01/27 17:31:36;;;;;;;1999.90;999.90;;;-0.20;99.90;;;;;;5071429;28;20430;-48
2021/01/27 17:34:04;;;;;;;1999.90;999.90;;;-0.30;99.90;;;;;;5066967;28;20488;-48
2021/01/27 17:36:30;;;;;;;1999.90;999.90;;;-0.30;99.90;;;;;;5066437;28;20435;-48
2021/01/27 17:38:55;;;;;;;1999.90;999.90;;;-0.30;99.90;;;;;;5067589;28;20539;-48
2021/01/27 17:41:21;;;;;;;1999.90;999.90;;;-0.30;99.90;;;;;;5067082;28;20664;-48
2021/01/27 17:43:50;;;;;;;1999.90;999.90;;;-0.30;99.90;;;;;;5063096;28;20209;-48
2021/01/27 17:46:16;;;;;;;1999.90;999.90;;;-0.20;99.90;;;;;;5065137;28;20435;-48
2021/01/27 17:48:43;;;;;;;1999.90;999.90;;;-0.20;99.90;;;;;;5064199;28;20485;-48
2021/01/27 17:51:09;;;;;;;1999.90;999.90;;;-0.20;99.90;;;;;;5064391;28;20213;-49
2021/01/27 17:53:35;;;;;;;1999.90;999.90;;;-0.20;99.90;;;;;;5064943;28;20423;-48
2021/01/27 17:56:01;;;;;;;1999.90;999.90;;;-0.20;99.90;;;;;;5064619;28;21000;-48
2021/01/27 17:58:27;;;;;;;1999.90;999.90;;;-0.30;99.90;;;;;;5062922;28;20188;-48
2021/01/27 18:00:52;;;;;;;1999.90;999.90;;;-0.30;99.90;;;;;;5067365;28;20501;-47
2021/01/27 18:03:18;;;;;;;1999.90;999.90;;;-0.30;99.90;;;;;;5064187;28;20182;-48
2021/01/27 18:05:44;;;;;;;1999.90;999.90;;;-0.30;99.90;;;;;;5063959;28;20236;-48
2021/01/27 18:08:12;;;;;;;1999.90;999.90;;;-0.30;99.90;;;;;;5065344;28;20265;-48
2021/01/27 18:10:40;;;;;;;1999.90;999.90;;;-0.30;99.90;;;;;;5065766;28;20205;-48
2021/01/27 18:13:08;;;;;;;1999.90;999.90;;;-0.30;99.90;;;;;;5063380;28;20458;-48
2021/01/27 18:15:34;;;;;;;1999.90;999.90;;;-0.30;99.90;;;;;;5061093;28;20489;-48
2021/01/27 18:18:01;;;;;;;1999.90;999.90;;;-0.30;99.90;;;;;;5049071;28;20474;-48
2021/01/27 18:20:29;;;;;;;1999.90;999.90;;;-0.30;99.90;;;;;;5068561;28;20510;-48
2021/01/27 18:22:55;;;;;;;1999.90;999.90;;;-0.30;99.90;;;;;;5067041;28;20443;-48
2021/01/27 18:25:28;;;;;;;1999.90;999.90;;;-0.30;99.90;;;;;;5063330;28;20435;-48
2021/01/27 18:27:55;;;;;;;1999.90;999.90;;;-0.30;99.90;;;;;;5063762;28;20442;-48
2021/01/27 18:30:22;;;;;;;1999.90;999.90;;;-0.20;99.90;;;;;;5067414;28;20480;-48
2021/01/27 18:32:49;;;;;;;1999.90;999.90;;;-0.30;99.90;;;;;;5049391;28;20482;-48
2021/01/27 18:35:17;;;;;;;1999.90;999.90;;;-0.30;99.90;;;;;;5074374;28;20544;-47
2021/01/27 18:37:43;;;;;;;1999.90;999.90;;;-0.30;99.90;;;;;;5074179;28;20437;-48
2021/01/27 18:40:10;;;;;;;1999.90;999.90;;;-0.30;99.90;;;;;;5062294;28;20478;-48
2021/01/27 18:42:37;;;;;;;1999.90;999.90;;;-0.30;99.90;;;;;;5064377;28;20220;-49
2021/01/27 18:45:06;;;;;;;1999.90;999.90;;;-0.30;99.90;;;;;;5064744;28;21251;-48
2021/01/27 18:47:32;;;;;;;1999.90;999.90;;;-0.30;99.90;;;;;;5069193;28;20453;-49
2021/01/27 18:49:58;;;;;;;1999.90;999.90;;;-0.20;99.90;;;;;;5067662;28;20454;-49
2021/01/27 18:52:23;;;;;;;1999.90;999.90;;;-0.30;99.90;;;;;;5066210;28;20199;-48
2021/01/27 18:54:49;;;;;;;1999.90;999.90;;;-0.20;99.90;;;;;;5058614;28;20193;-48
2021/01/27 18:57:14;;;;;;;1999.90;999.90;;;-0.20;99.90;;;;;;5070043;28;20273;-48
2021/01/27 18:59:40;;;;;;;1999.90;999.90;;;-0.20;99.90;;;;;;5062688;28;20737;-48
2021/01/27 19:02:06;;;;;;;1999.90;999.90;;;-0.30;99.90;;;;;;5058450;28;20267;-48
2021/01/27 19:04:31;;;;;;;1999.90;999.90;;;-0.20;99.90;;;;;;5064036;28;20177;-48
2021/01/27 19:06:58;;;;;;;1999.90;999.90;;;-0.20;99.90;;;;;;5067277;28;20214;-48
2021/01/27 19:09:23;;;;;;;1999.90;999.90;;;-0.20;99.90;;;;;;5065833;28;20219;-49
2021/01/27 19:11:49;;;;;;;1999.90;999.90;;;-0.20;99.90;;;;;;5064254;28;20473;-49
2021/01/27 19:14:15;;;;;;;1999.90;999.90;;;-0.10;99.90;;;;;;5065379;28;20200;-49
2021/01/27 19:16:40;;;;;;;1999.90;999.90;;;-0.20;99.90;;;;;;5062828;28;20193;-48
2021/01/27 19:19:06;;;;;;;1999.90;999.90;;;-0.20;99.90;;;;;;5064867;28;20327;-48
2021/01/27 19:21:32;;;;;;;1999.90;999.90;;;-0.20;99.90;;;;;;5066158;28;20192;-49
2021/01/27 19:23:57;;;;;;;1999.90;999.90;;;-0.20;99.90;;;;;;5064192;28;20666;-48
2021/01/27 19:26:23;;;;;;;1999.90;999.90;;;-0.20;99.90;;;;;;5066137;28;20188;-48
2021/01/27 19:28:49;;;;;;;1999.90;999.90;;;-0.20;99.90;;;;;;5064312;28;20264;-48
2021/01/27 19:31:15;;;;;;;1999.90;999.90;;;-0.20;99.90;;;;;;5066715;28;20200;-48
2021/01/27 19:33:41;;;;;;;1999.90;999.90;;;-0.20;99.90;;;;;;5064809;28;20884;-49
2021/01/27 19:36:08;;;;;;;1999.90;999.90;;;-0.20;99.90;;;;;;5064902;28;21030;-48
2021/01/27 19:38:34;;;;;;;1999.90;999.90;;;-0.20;99.90;;;;;;5061006;28;20450;-49
2021/01/27 19:40:59;;;;;;;1999.90;999.90;;;-0.10;99.90;;;;;;5064540;28;20458;-49
2021/01/27 19:43:25;;;;;;;1999.90;999.90;;;-0.10;99.90;;;;;;5058183;28;20202;-49
2021/01/27 19:45:52;;;;;;;1999.90;999.90;;;-0.10;99.90;;;;;;5061264;28;20189;-49
2021/01/27 19:48:25;;;;;;;1999.90;999.90;;;-0.10;99.90;;;;;;5064316;28;20434;-50
2021/01/27 19:50:53;;;;;;;1999.90;999.90;;;-0.10;99.90;;;;;;5062789;28;20459;-48
2021/01/27 19:53:20;;;;;;;1999.90;999.90;;;-0.10;99.90;;;;;;5065740;28;20462;-50
2021/01/27 19:55:48;;;;;;;1999.90;999.90;;;-0.10;99.90;;;;;;5071574;28;20978;-49
2021/01/27 19:58:13;;;;;;;1999.90;999.90;;;-0.10;99.90;;;;;;5070699;28;20439;-48
2021/01/27 20:00:39;;;;;;;1999.90;999.90;;;-0.10;99.90;;;;;;5067502;28;20489;-49
2021/01/27 20:03:06;;;;;;;1999.90;999.90;;;-0.20;99.90;;;;;;5069581;28;20180;-49
2021/01/27 20:05:34;;;;;;;1999.90;999.90;;;-0.20;99.90;;;;;;5066714;28;20231;-49
2021/01/27 20:08:00;;;;;;;1999.90;999.90;;;-0.10;99.90;;;;;;5060996;28;20450;-49
2021/01/27 20:10:29;;;;;;;1999.90;999.90;;;-0.10;99.90;;;;;;5068538;28;20509;-48
2021/01/27 20:12:55;;;;;;;1999.90;999.90;;;-0.10;99.90;;;;;;5069187;28;20827;-50
2021/01/27 20:15:31;;;;;;;1999.90;999.90;;;-0.10;99.90;;;;;;5065708;28;21747;-48
2021/01/27 20:17:57;;;;;;;1999.90;999.90;;;-0.10;99.90;;;;;;5069378;28;20422;-48
2021/01/27 20:20:25;;;;;;;1999.90;999.90;;;-0.10;99.90;;;;;;5064130;28;20478;-48
2021/01/27 20:22:52;;;;;;;1999.90;999.90;;;-0.10;99.90;;;;;;5065971;28;20440;-47
2021/01/27 20:25:21;;;;;;;1999.90;999.90;;;-0.10;99.90;;;;;;5069427;28;20795;-48
2021/01/27 20:27:47;;;;;;;1999.90;999.90;;;-0.10;99.90;;;;;;5061306;28;20400;-47
2021/01/27 20:30:17;;;;;;;1999.90;999.90;;;-0.10;99.90;;;;;;5064494;28;20558;-48
2021/01/27 20:32:43;;;;;;;1999.90;999.90;;;-0.10;99.90;;;;;;5068872;28;20554;-47
2021/01/27 20:35:10;;;;;;;1999.90;999.90;;;-0.10;99.90;;;;;;5065413;28;20480;-47
2021/01/27 20:37:36;;;;;;;1999.90;999.90;;;-0.10;99.90;;;;;;5070702;28;20522;-47
2021/01/27 20:40:05;;;;;;;1999.90;999.90;;;-0.10;99.90;;;;;;5058668;28;20478;-48
2021/01/27 20:42:31;;;;;;;1999.90;999.90;;;-0.10;99.90;;;;;;5068114;28;20443;-47
2021/01/27 20:44:56;;;;;;;1999.90;999.90;;;-0.10;99.90;;;;;;5067171;28;20443;-48
2021/01/27 20:47:22;;;;;;;1999.90;999.90;;;-0.10;99.90;;;;;;5065475;28;20641;-47
2021/01/27 20:49:48;;;;;;;1999.90;999.90;;;-0.10;99.90;;;;;;5068627;28;20212;-49
2021/01/27 20:52:13;;;;;;;1999.90;999.90;;;-0.10;99.90;;;;;;5069203;28;20177;-48
2021/01/27 20:54:39;;;;;;;1999.90;999.90;;;-0.10;99.90;;;;;;5069056;28;20916;-51
2021/01/27 20:57:05;;;;;;;1999.90;999.90;;;-0.10;99.90;;;;;;5065978;28;20189;-51
2021/01/27 20:59:30;;;;;;;1999.90;999.90;;;-0.10;99.90;;;;;;5064187;28;20992;-48
2021/01/27 21:01:56;;;;;;;1999.90;999.90;;;-0.10;99.90;;;;;;5064346;28;20173;-49
2021/01/27 21:04:22;;;;;;;1999.90;999.90;;;-0.10;99.90;;;;;;5068969;28;20225;-48
2021/01/27 21:06:48;;;;;;;1999.90;999.90;;;-0.10;99.90;;;;;;5071100;28;20180;-49
2021/01/27 21:09:14;;;;;;;1999.90;999.90;;;-0.10;99.90;;;;;;5072686;28;20205;-48
2021/01/27 21:11:39;;;;;;;1999.90;999.90;;;-0.10;99.90;;;;;;5073101;28;20414;-48
2021/01/27 21:14:05;;;;;;;1999.90;999.90;;;-0.10;99.90;;;;;;5073179;28;20170;-48
2021/01/27 21:16:31;;;;;;;1999.90;999.90;;;0.00;99.90;;;;;;5070945;28;20271;-48
2021/01/27 21:18:56;;;;;;;1999.90;999.90;;;0.00;99.90;;;;;;5072519;28;20213;-48
2021/01/27 21:21:22;;;;;;;1999.90;999.90;;;0.00;99.90;;;;;;5072944;28;20668;-48
2021/01/27 21:23:48;;;;;;;1999.90;999.90;;;0.00;99.90;;;;;;5071369;28;20173;-48
2021/01/27 21:26:14;;;;;;;1999.90;999.90;;;0.00;99.90;;;;;;5070389;28;20214;-47
2021/01/27 21:28:39;;;;;;;1999.90;999.90;;;0.00;99.90;;;;;;5067286;28;20192;-48
2021/01/27 21:31:05;;;;;;;1999.90;999.90;;;0.00;99.90;;;;;;5068863;28;20473;-48
2021/01/27 21:33:31;;;;;;;1999.90;999.90;;;0.00;99.90;;;;;;5069728;28;20185;-48
2021/01/27 21:36:00;;;;;;;1999.90;999.90;;;0.00;99.90;;;;;;5073861;28;20680;-48
2021/01/27 21:38:29;;;;;;;1999.90;999.90;;;0.00;99.90;;;;;;5075640;28;20177;-49
2021/01/27 21:40:56;;;;;;;1999.90;999.90;;;0.00;99.90;;;;;;5069858;28;20470;-50
2021/01/27 21:43:23;;;;;;;1999.90;999.90;;;0.00;99.90;;;;;;5069520;28;20432;-49
2021/01/27 21:45:49;;;;;;;1999.90;999.90;;;0.00;99.90;;;;;;5069877;28;20489;-47
2021/01/27 21:48:17;;;;;;;1999.90;999.90;;;0.00;99.90;;;;;;5070753;28;20475;-48
2021/01/27 21:50:44;;;;;;;1999.90;999.90;;;0.00;99.90;;;;;;5078538;28;20983;-47
2021/01/27 21:53:10;;;;;;;1999.90;999.90;;;0.10;99.90;;;;;;5071301;28;20416;-47
2021/01/27 21:55:36;;;;;;;1999.90;999.90;;;0.10;99.90;;;;;;5070357;28;21188;-48
2021/01/27 21:58:03;;;;;;;1999.90;999.90;;;0.10;99.90;;;;;;5070725;28;20440;-48
2021/01/27 22:00:29;;;;;;;1999.90;999.90;;;0.10;99.90;;;;;;5068146;28;20231;-49
2021/01/27 22:02:55;;;;;;;1999.90;999.90;;;0.10;99.90;;;;;;5062820;28;20529;-50
2021/01/27 22:05:24;;;;;;;1999.90;999.90;;;0.10;99.90;;;;;;5064799;28;20463;-48
2021/01/27 22:07:50;;;;;;;1999.90;999.90;;;0.10;99.90;;;;;;5084725;28;20433;-47
2021/01/27 22:10:17;;;;;;;1999.90;999.90;;;0.10;99.90;;;;;;5078758;28;20494;-47
2021/01/27 22:12:42;;;;;;;1999.90;999.90;;;0.10;99.90;;;;;;5072069;28;20502;-48
2021/01/27 22:15:11;;;;;;;1999.90;999.90;;;0.10;99.90;;;;;;5069997;28;21177;-47
2021/01/27 22:17:38;;;;;;;1999.90;999.90;;;0.10;99.90;;;;;;5071585;28;20177;-47
2021/01/27 22:20:12;;;;;;;1999.90;999.90;;;0.10;99.90;;;;;;5071499;28;20475;-48
2021/01/27 22:22:38;;;;;;;1999.90;999.90;;;0.10;99.90;;;;;;5071708;28;20422;-48
2021/01/27 22:25:07;;;;;;;1999.90;999.90;;;0.10;99.90;;;;;;5071923;28;20423;-48
2021/01/27 22:27:34;;;;;;;1999.90;999.90;;;0.10;99.90;;;;;;5071905;28;20847;-48
2021/01/27 22:30:00;;;;;;;1999.90;999.90;;;0.10;99.90;;;;;;5075669;28;20457;-49
2021/01/27 22:32:26;;;;;;;1999.90;999.90;;;0.10;99.90;;;;;;5075005;28;20808;-50
2021/01/27 22:34:53;;;;;;;1999.90;999.90;;;0.10;99.90;;;;;;5067522;28;20450;-47
2021/01/27 22:37:19;;;;;;;1999.90;999.90;;;0.10;99.90;;;;;;5071613;28;20469;-47
2021/01/27 22:39:44;;;;;;;1999.90;999.90;;;0.10;99.90;;;;;;5071276;28;20708;-48
2021/01/27 22:42:10;;;;;;;1999.90;999.90;;;0.10;99.90;;;;;;5071900;28;20188;-48
2021/01/27 22:44:36;;;;;;;1999.90;999.90;;;0.10;99.90;;;;;;5070082;28;20170;-48
2021/01/27 22:47:01;;;;;;;1999.90;999.90;;;0.10;99.90;;;;;;5059669;28;20189;-47
2021/01/27 22:49:27;;;;;;;1999.90;999.90;;;0.10;99.90;;;;;;5070192;28;20201;-48
2021/01/27 22:51:54;;;;;;;1999.90;999.90;;;0.10;99.90;;;;;;5071117;28;20197;-49
2021/01/27 22:54:20;;;;;;;1999.90;999.90;;;0.10;99.90;;;;;;5070980;28;20529;-48
2021/01/27 22:56:46;;;;;;;1999.90;999.90;;;0.20;99.90;;;;;;5072621;28;20445;-49
2021/01/27 22:59:13;;;;;;;1999.90;999.90;;;0.20;99.90;;;;;;5070485;28;20512;-48
2021/01/27 23:01:39;;;;;;;1999.90;999.90;;;0.10;99.90;;;;;;5070038;28;20652;-50
2021/01/27 23:04:05;;;;;;;1999.90;999.90;;;0.20;99.90;;;;;;5065578;28;20485;-50
2021/01/27 23:06:36;;;;;;;1999.90;999.90;;;0.20;99.90;;;;;;5068894;28;21951;-49
2021/01/27 23:09:07;;;;;;;1999.90;999.90;;;0.20;99.90;;;;;;5060485;28;20848;-49
2021/01/27 23:11:33;;;;;;;1999.90;999.90;;;0.20;99.90;;;;;;5071247;28;20493;-50
2021/01/27 23:13:59;;;;;;;1999.90;999.90;;;0.20;99.90;;;;;;5070824;28;20482;-49
